Key West, Florida
Current Conditions -  °F | °C
As of 5:53 PM on Saturday 25 Oct 2014 (Local Time) from KEYW Reporting Station
Few Clouds Few Clouds  
Wind Chill: 26°   Ceiling: Unl
Heat Index: 27°   Visibility: 10mi
Dew Point: 19°   Wind: 12mph
Humidity: 64%   Direction: 360°N
Pressure: 29.91"   Gusts: NA
Location:  24.55°N, 81.8°W
Report Text: KEYW 252153Z 36010KT 10SM FEW033 26/19 A2991 RMK AO2 SLP128 T02610189
Loading
Personal Weather Stations






























Interactive Weather Map New forecast layout! Learn more

10-Day Weather Forecast

Advertisements
Track Severe Weather on mobile